Main page
METAR-TAF:

METAR-TAF

Airports :

George Best Belfast City Airport

Belfast City, Northern Ireland

latitude: 54-36N, longitude: 005-53W, elevation: 5 m

Current weather observation

The report was made 37 minutes ago, at 19:20 UTC
Wind 5 kt from the West/Northwest, varying between West/Southwest and North/Northeast
Temperature 19°C
Humidity 46%
Pressure 1021 hPa
Visibility 10 km or more

METAR: EGAC 191920Z AUTO 30005KT 240V030 9999 NCD 19/07 Q1021

Time: 20:57 (19:57 UTC)

Forecast

The report was made 2 hours and 55 minutes ago, at 17:02 UTC
Forecast valid from 19 at 18 UTC to 19 at 22 UTC
Wind 5 kt from the North
Visibility 10 km or more
Few clouds at a height of 4500 ft
Probability 30%
from 19 at 21 UTC to 19 at 22 UTC
Visibility: 8000 m

TAF: EGAC 191702Z 1918/1922 36005KT 9999 FEW045 PROB30 1921/1922 8000

Weather observations and forecasts of more than 4000 airports (METAR and TAF reports).

The available stations are represented by yellow and red dots on the map.

Hover mouse over dot to see the name of the station.

Then click to see weather observations and forecasts.

To change the map : click on the green buttons with a black cross to zoom in, on the green button with a dash to zoom out, or on the green arrows for adjacent maps.


METAR-TAF: